createdAt,value
2022-08-14T00:00:25.047Z,16.33
2022-08-14T00:01:25.050Z,16.50
2022-08-14T00:02:27.372Z,16.29
2022-08-14T00:03:29.149Z,16.33
2022-08-14T00:04:36.098Z,16.32
2022-08-14T00:05:26.003Z,16.25
2022-08-14T00:06:28.511Z,16.36
2022-08-14T00:07:24.949Z,16.18
2022-08-14T00:08:44.732Z,16.18
2022-08-14T00:09:24.908Z,16.16
2022-08-14T00:10:51.993Z,16.26
2022-08-14T00:11:24.880Z,16.11
2022-08-14T00:12:33.792Z,16.18
2022-08-14T00:13:25.882Z,16.14
2022-08-14T00:14:24.855Z,16.14
2022-08-14T00:15:24.832Z,16.07
2022-08-14T00:16:40.864Z,16.07
2022-08-14T00:17:24.801Z,16.13
2022-08-14T00:19:01.004Z,16.07
2022-08-14T00:19:24.775Z,16.06
2022-08-14T00:20:31.181Z,16.08
2022-08-14T00:21:28.215Z,15.99
2022-08-14T00:22:56.852Z,16.01
2022-08-14T00:23:24.723Z,16.01
2022-08-14T00:24:30.832Z,16.14
2022-08-14T00:25:25.711Z,16.07
2022-08-14T00:26:24.683Z,16.04
2022-08-14T00:27:24.663Z,15.99
2022-08-14T00:28:24.670Z,15.99
2022-08-14T00:29:25.267Z,16.01
2022-08-14T00:30:24.631Z,16.06
2022-08-14T00:31:35.149Z,15.95
2022-08-14T00:32:50.311Z,15.88
2022-08-14T00:33:39.332Z,15.95
2022-08-14T00:34:36.262Z,15.93
2022-08-14T00:35:25.926Z,15.91
2022-08-14T00:36:36.290Z,15.89
2022-08-14T00:37:24.532Z,15.98
2022-08-14T00:38:24.525Z,15.89
2022-08-14T00:39:24.582Z,15.84
2022-08-14T00:40:33.088Z,15.78
2022-08-14T00:41:24.480Z,15.78
2022-08-14T00:42:55.510Z,15.80
2022-08-14T00:43:24.447Z,15.85
2022-08-14T00:44:31.904Z,15.73
2022-08-14T00:45:24.430Z,15.66
2022-08-14T00:46:33.145Z,15.67
2022-08-14T00:47:25.429Z,15.58
2022-08-14T00:48:34.840Z,15.62
2022-08-14T00:49:24.408Z,15.58
2022-08-14T00:50:24.353Z,15.48
2022-08-14T00:51:24.338Z,15.55
2022-08-14T00:52:24.326Z,15.55
2022-08-14T00:53:24.315Z,15.53
2022-08-14T00:54:24.306Z,15.52
2022-08-14T00:55:24.288Z,15.55
2022-08-14T00:56:24.278Z,15.46
2022-08-14T00:57:24.261Z,15.51
2022-08-14T00:58:28.019Z,15.58
2022-08-14T00:59:24.621Z,15.43
2022-08-14T01:00:37.509Z,15.41
2022-08-14T01:01:24.219Z,15.40
2022-08-14T01:02:24.198Z,15.46
2022-08-14T01:03:24.188Z,15.38
2022-08-14T01:04:38.258Z,15.43
2022-08-14T01:05:24.153Z,15.48
2022-08-14T01:06:24.142Z,15.35
2022-08-14T01:07:27.307Z,15.40
2022-08-14T01:08:51.414Z,15.46
2022-08-14T01:09:24.101Z,15.43
2022-08-14T01:10:24.082Z,15.31
2022-08-14T01:11:24.067Z,15.34
2022-08-14T01:12:27.406Z,15.25
2022-08-14T01:13:24.045Z,15.41
2022-08-14T01:14:28.584Z,15.30
2022-08-14T01:15:48.153Z,15.27
2022-08-14T01:16:26.336Z,15.27
2022-08-14T01:17:23.990Z,15.33
2022-08-14T01:18:23.979Z,15.28
2022-08-14T01:19:23.968Z,15.23
2022-08-14T01:20:27.339Z,15.20
2022-08-14T01:21:23.937Z,15.27
2022-08-14T01:22:26.817Z,15.27
2022-08-14T01:23:23.915Z,15.23
2022-08-14T01:24:30.588Z,15.28
2022-08-14T01:25:23.879Z,15.20
2022-08-14T01:26:35.232Z,15.33
2022-08-14T01:27:25.043Z,15.23
2022-08-14T01:28:47.067Z,15.19
2022-08-14T01:29:51.968Z,15.22
2022-08-14T01:30:23.824Z,15.13
2022-08-14T01:31:23.804Z,15.28
2022-08-14T01:32:23.795Z,15.20
2022-08-14T01:33:23.774Z,15.22
2022-08-14T01:35:21.145Z,15.19
2022-08-14T01:36:03.369Z,15.07
2022-08-14T01:36:23.762Z,15.12
2022-08-14T01:37:23.720Z,15.04
2022-08-14T01:38:23.711Z,15.09
2022-08-14T01:39:23.737Z,15.12
2022-08-14T01:40:25.580Z,15.07
2022-08-14T01:41:30.103Z,15.19
2022-08-14T01:42:31.863Z,15.13
2022-08-14T01:43:26.601Z,15.04
2022-08-14T01:44:31.940Z,15.15
2022-08-14T01:45:25.436Z,15.07
2022-08-14T01:46:24.608Z,15.00
2022-08-14T01:47:23.583Z,15.16
2022-08-14T01:48:23.575Z,15.01
2022-08-14T01:49:23.557Z,14.90
2022-08-14T01:50:26.634Z,14.97
2022-08-14T01:51:23.526Z,14.97
2022-08-14T01:52:57.622Z,14.94
2022-08-14T01:53:23.504Z,14.87
2022-08-14T01:54:23.494Z,14.78
2022-08-14T01:55:23.476Z,14.90
2022-08-14T01:56:23.470Z,14.85
2022-08-14T01:57:23.445Z,14.72
2022-08-14T01:58:28.917Z,14.79
2022-08-14T01:59:23.421Z,14.82
2022-08-14T02:00:23.417Z,14.83
2022-08-14T02:01:23.442Z,14.85
2022-08-14T02:02:23.386Z,14.82
2022-08-14T02:03:23.374Z,14.80
2022-08-14T02:04:56.207Z,14.74
2022-08-14T02:05:23.336Z,14.79
2022-08-14T02:06:33.379Z,14.75
2022-08-14T02:07:34.478Z,14.69
2022-08-14T02:08:35.660Z,14.57
2022-08-14T02:09:23.287Z,14.64
2022-08-14T02:10:26.312Z,14.53
2022-08-14T02:11:23.266Z,14.53
2022-08-14T02:12:26.298Z,14.54
2022-08-14T02:13:23.230Z,14.46
2022-08-14T02:14:31.013Z,14.42
2022-08-14T02:15:23.199Z,14.42
2022-08-14T02:16:23.191Z,14.54
2022-08-14T02:17:23.178Z,14.42
2022-08-14T02:18:23.162Z,14.39
2022-08-14T02:19:23.150Z,14.39
2022-08-14T02:20:23.862Z,14.49
2022-08-14T02:21:23.728Z,14.38
2022-08-14T02:22:32.446Z,14.49
2022-08-14T02:23:28.889Z,14.41
2022-08-14T02:24:40.405Z,14.42
2022-08-14T02:25:23.079Z,14.34
2022-08-14T02:26:29.272Z,14.34
2022-08-14T02:28:24.521Z,14.36
2022-08-14T02:28:58.134Z,14.34
2022-08-14T02:29:23.019Z,14.39
2022-08-14T02:30:23.002Z,14.30
2022-08-14T02:31:28.430Z,14.35
2022-08-14T02:32:30.623Z,14.24
2022-08-14T02:33:22.960Z,14.35
2022-08-14T02:34:27.382Z,14.29
2022-08-14T02:35:22.930Z,14.27
2022-08-14T02:37:05.467Z,14.20
2022-08-14T02:37:22.913Z,14.13
2022-08-14T02:38:30.217Z,14.12
2022-08-14T02:39:22.906Z,14.16
2022-08-14T02:40:32.190Z,14.19
2022-08-14T02:41:26.359Z,14.16
2022-08-14T02:42:23.415Z,14.13
2022-08-14T02:43:22.916Z,14.05
2022-08-14T02:44:29.568Z,14.04
2022-08-14T02:45:22.801Z,14.09
2022-08-14T02:46:26.903Z,14.17
2022-08-14T02:47:22.767Z,14.06
2022-08-14T02:49:04.191Z,14.09
2022-08-14T02:49:25.306Z,14.05
2022-08-14T02:50:27.015Z,14.05
2022-08-14T02:51:22.709Z,13.96
2022-08-14T02:52:56.000Z,14.05
2022-08-14T02:53:22.691Z,14.08
2022-08-14T02:54:22.672Z,14.08
2022-08-14T02:55:22.657Z,13.93
2022-08-14T02:56:30.496Z,13.93
2022-08-14T02:57:39.284Z,13.94
2022-08-14T02:58:30.666Z,13.99
2022-08-14T02:59:22.599Z,13.96
2022-08-14T03:00:22.589Z,14.01
2022-08-14T03:01:22.623Z,13.91
2022-08-14T03:02:33.346Z,13.94
2022-08-14T03:03:22.551Z,13.96
2022-08-14T03:04:22.534Z,13.93
2022-08-14T03:05:22.522Z,13.88
2022-08-14T03:06:35.195Z,13.87
2022-08-14T03:07:22.502Z,13.90
2022-08-14T03:08:22.496Z,13.86
2022-08-14T03:09:22.461Z,13.91
2022-08-14T03:10:27.000Z,13.91
2022-08-14T03:11:22.437Z,13.83
2022-08-14T03:12:30.939Z,13.72
2022-08-14T03:13:22.418Z,13.86
2022-08-14T03:14:22.398Z,13.84
2022-08-14T03:15:22.389Z,13.86
2022-08-14T03:16:26.795Z,13.86
2022-08-14T03:17:22.462Z,13.91
2022-08-14T03:18:22.336Z,13.83
2022-08-14T03:19:22.337Z,13.81
2022-08-14T03:20:22.499Z,13.75
2022-08-14T03:21:22.302Z,13.83
2022-08-14T03:22:22.291Z,13.72
2022-08-14T03:23:22.278Z,13.83
2022-08-14T03:24:23.334Z,13.83
2022-08-14T03:25:22.251Z,13.83
2022-08-14T03:26:29.615Z,13.80
2022-08-14T03:27:23.239Z,13.76
2022-08-14T03:28:32.857Z,13.69
2022-08-14T03:29:22.193Z,13.75
2022-08-14T03:30:23.362Z,13.73
2022-08-14T03:31:22.166Z,13.62
2022-08-14T03:32:27.353Z,13.65
2022-08-14T03:33:22.133Z,13.69
2022-08-14T03:34:24.958Z,13.75
2022-08-14T03:35:23.145Z,13.72
2022-08-14T03:37:51.458Z,13.55
2022-08-14T03:37:52.099Z,13.53
2022-08-14T03:39:12.192Z,13.63
2022-08-14T03:39:24.172Z,13.55
2022-08-14T03:40:22.038Z,13.57
2022-08-14T03:41:23.257Z,13.63
2022-08-14T03:42:22.010Z,13.61
2022-08-14T03:43:22.001Z,13.47
2022-08-14T03:45:26.067Z,13.61
2022-08-14T03:45:34.220Z,13.57
2022-08-14T03:46:38.936Z,13.55
2022-08-14T03:47:21.952Z,13.51
2022-08-14T03:48:30.418Z,13.39
2022-08-14T03:49:24.198Z,13.51
2022-08-14T03:50:27.799Z,13.43
2022-08-14T03:51:21.891Z,13.29
2022-08-14T03:52:38.871Z,13.38
2022-08-14T03:53:21.872Z,13.38
2022-08-14T03:54:21.849Z,13.32
2022-08-14T03:55:21.838Z,13.39
2022-08-14T03:56:21.822Z,13.38
2022-08-14T03:57:22.877Z,13.27
2022-08-14T03:58:23.749Z,13.32
2022-08-14T03:59:21.792Z,13.27
2022-08-14T04:00:43.287Z,13.21
2022-08-14T04:01:21.807Z,13.24
2022-08-14T04:02:32.600Z,13.09
2022-08-14T04:03:24.268Z,13.17
2022-08-14T04:04:21.715Z,13.14
2022-08-14T04:05:21.704Z,13.12
2022-08-14T04:06:21.688Z,13.13
2022-08-14T04:07:21.672Z,13.17
2022-08-14T04:08:29.243Z,13.27
2022-08-14T04:09:21.653Z,13.25
2022-08-14T04:10:31.475Z,13.29
2022-08-14T04:11:21.619Z,13.24
2022-08-14T04:12:26.556Z,13.21
2022-08-14T04:13:23.899Z,13.19
2022-08-14T04:14:21.585Z,13.16
2022-08-14T04:15:23.592Z,13.21
2022-08-14T04:16:21.555Z,13.22
2022-08-14T04:17:21.541Z,13.19
2022-08-14T04:18:21.529Z,13.21
2022-08-14T04:19:21.543Z,13.10
2022-08-14T04:20:25.740Z,13.28
2022-08-14T04:21:21.495Z,13.25
2022-08-14T04:22:21.985Z,13.25
2022-08-14T04:23:23.640Z,13.17
2022-08-14T04:24:21.445Z,13.07
2022-08-14T04:25:21.436Z,13.10
2022-08-14T04:26:41.967Z,13.14
2022-08-14T04:27:21.409Z,13.21
2022-08-14T04:29:01.970Z,13.19
2022-08-14T04:29:22.405Z,13.16
2022-08-14T04:30:29.540Z,13.17
2022-08-14T04:31:24.896Z,13.10
2022-08-14T04:33:00.160Z,13.17
2022-08-14T04:33:21.774Z,13.29
2022-08-14T04:34:27.161Z,13.22
2022-08-14T04:35:23.704Z,13.31
2022-08-14T04:36:21.290Z,13.28
2022-08-14T04:37:22.328Z,13.32
2022-08-14T04:38:36.795Z,13.29
2022-08-14T04:39:21.272Z,13.29
2022-08-14T04:40:21.236Z,13.36
2022-08-14T04:41:21.222Z,13.31
2022-08-14T04:42:21.211Z,13.43
2022-08-14T04:43:21.192Z,13.41
2022-08-14T04:44:26.589Z,13.47
2022-08-14T04:45:21.162Z,13.50
2022-08-14T04:46:55.221Z,13.47
2022-08-14T04:47:22.158Z,13.39
2022-08-14T04:48:39.243Z,13.43
2022-08-14T04:49:21.111Z,13.59
2022-08-14T04:50:31.395Z,13.51
2022-08-14T04:51:21.087Z,13.46
2022-08-14T04:52:23.414Z,13.59
2022-08-14T04:53:23.272Z,13.53
2022-08-14T04:54:21.044Z,13.63
2022-08-14T04:55:21.027Z,13.55
2022-08-14T04:56:30.653Z,13.55
2022-08-14T04:57:21.005Z,13.63
2022-08-14T04:58:21.498Z,13.68
2022-08-14T04:59:20.979Z,13.71
2022-08-14T05:00:20.970Z,13.87
2022-08-14T05:01:20.952Z,13.79
2022-08-14T05:02:20.998Z,13.76
2022-08-14T05:03:20.920Z,13.79
2022-08-14T05:04:21.154Z,13.83
2022-08-14T05:05:20.897Z,13.84
2022-08-14T05:06:38.558Z,13.81
2022-08-14T05:07:20.924Z,13.83
2022-08-14T05:08:32.251Z,13.93
2022-08-14T05:09:21.605Z,13.90
2022-08-14T05:10:21.951Z,13.84
2022-08-14T05:11:20.829Z,13.93
2022-08-14T05:13:10.433Z,13.91
2022-08-14T05:13:24.475Z,13.93
2022-08-14T05:14:45.721Z,14.02
2022-08-14T05:15:20.760Z,13.93
2022-08-14T05:16:20.751Z,13.96
2022-08-14T05:17:20.745Z,14.08
2022-08-14T05:19:17.128Z,14.09
2022-08-14T05:19:26.768Z,14.04
2022-08-14T05:21:55.228Z,14.08
2022-08-14T05:22:00.029Z,14.21
2022-08-14T05:22:21.694Z,14.17
2022-08-14T05:23:20.653Z,14.24
2022-08-14T05:24:20.643Z,14.21
2022-08-14T05:25:20.632Z,14.31
2022-08-14T05:26:20.621Z,14.24
2022-08-14T05:27:22.776Z,14.30
2022-08-14T05:28:20.687Z,14.35
2022-08-14T05:29:20.576Z,14.45
2022-08-14T05:30:20.564Z,14.41
2022-08-14T05:31:21.193Z,14.45
2022-08-14T05:32:20.536Z,14.61
2022-08-14T05:33:20.522Z,14.61
2022-08-14T05:34:20.512Z,14.59
2022-08-14T05:35:20.498Z,14.72
2022-08-14T05:36:20.478Z,14.74
2022-08-14T05:37:20.465Z,14.83
2022-08-14T05:38:22.222Z,14.79
2022-08-14T05:39:21.478Z,14.87
2022-08-14T05:40:20.430Z,15.03
2022-08-14T05:41:20.413Z,15.11
2022-08-14T05:42:22.366Z,15.12
2022-08-14T05:43:20.385Z,15.27
2022-08-14T05:44:20.376Z,15.34
2022-08-14T05:45:20.353Z,15.59
2022-08-14T05:46:20.843Z,15.91
2022-08-14T05:47:20.327Z,16.11
2022-08-14T05:48:32.778Z,16.29
2022-08-14T05:49:20.304Z,16.50
2022-08-14T05:50:20.298Z,16.82
2022-08-14T05:51:20.275Z,17.07
2022-08-14T05:52:26.519Z,17.15
2022-08-14T05:53:20.242Z,17.45
2022-08-14T05:54:26.922Z,17.46
2022-08-14T05:55:21.906Z,17.54
2022-08-14T05:56:20.205Z,17.81
2022-08-14T05:57:20.194Z,17.95
2022-08-14T05:58:20.197Z,18.01
2022-08-14T05:59:20.167Z,18.05
2022-08-14T06:00:29.053Z,18.16
2022-08-14T06:01:20.197Z,18.32
2022-08-14T06:02:21.771Z,18.46
2022-08-14T06:03:20.109Z,18.72
2022-08-14T06:04:20.102Z,18.91
2022-08-14T06:05:23.385Z,19.24
2022-08-14T06:06:20.078Z,19.16
2022-08-14T06:07:20.060Z,19.28
2022-08-14T06:08:30.982Z,19.25
2022-08-14T06:09:20.029Z,19.27
2022-08-14T06:10:20.020Z,19.21
2022-08-14T06:11:20.365Z,19.16
2022-08-14T06:12:31.348Z,19.13
2022-08-14T06:13:19.984Z,19.06
2022-08-14T06:14:21.552Z,19.31
2022-08-14T06:15:20.578Z,19.12
2022-08-14T06:16:19.945Z,19.15
2022-08-14T06:17:26.163Z,19.17
2022-08-14T06:18:19.911Z,19.23
2022-08-14T06:19:19.897Z,19.23
2022-08-14T06:20:22.091Z,19.46
2022-08-14T06:21:19.877Z,19.45
2022-08-14T06:22:19.860Z,19.32
2022-08-14T06:23:19.843Z,19.42
2022-08-14T06:24:19.835Z,19.57
2022-08-14T06:25:19.820Z,19.70
2022-08-14T06:26:20.720Z,19.78
2022-08-14T06:27:19.790Z,19.89
2022-08-14T06:28:27.326Z,19.92
2022-08-14T06:29:20.783Z,19.97
2022-08-14T06:30:19.749Z,20.04
2022-08-14T06:31:19.733Z,19.94
2022-08-14T06:32:36.446Z,20.04
2022-08-14T06:33:19.710Z,20.16
2022-08-14T06:35:02.813Z,19.83
2022-08-14T06:35:20.708Z,19.72
2022-08-14T06:36:19.671Z,19.65
2022-08-14T06:37:19.653Z,19.64
2022-08-14T06:38:19.643Z,19.75
2022-08-14T06:39:36.325Z,19.80
2022-08-14T06:40:26.999Z,19.85
2022-08-14T06:41:20.955Z,19.85
2022-08-14T06:42:33.080Z,19.92
2022-08-14T06:43:19.753Z,20.15
2022-08-14T06:44:19.564Z,20.23
2022-08-14T06:45:19.555Z,20.31
2022-08-14T06:46:32.406Z,20.51
2022-08-14T06:47:19.524Z,20.46
2022-08-14T06:48:19.514Z,20.31
2022-08-14T06:49:19.497Z,19.97
2022-08-14T06:50:19.493Z,19.83
2022-08-14T06:51:19.469Z,19.75
2022-08-14T06:52:19.459Z,19.72
2022-08-14T06:53:19.436Z,19.76
2022-08-14T06:54:19.434Z,19.85
2022-08-14T06:55:24.032Z,19.83
2022-08-14T06:56:19.405Z,19.95
2022-08-14T06:57:19.384Z,19.97
2022-08-14T06:58:25.062Z,20.05
2022-08-14T06:59:19.690Z,20.07
2022-08-14T07:00:26.777Z,20.22
2022-08-14T07:01:26.835Z,20.50
2022-08-14T07:02:20.352Z,20.81
2022-08-14T07:03:21.711Z,21.28
2022-08-14T07:04:23.730Z,21.83
2022-08-14T07:05:23.176Z,22.23
2022-08-14T07:06:21.494Z,22.31
2022-08-14T07:07:19.258Z,22.21
2022-08-14T07:08:19.241Z,22.06
2022-08-14T07:09:23.223Z,22.14
2022-08-14T07:10:19.222Z,22.31
2022-08-14T07:11:19.202Z,22.64
2022-08-14T07:12:54.223Z,22.81
2022-08-14T07:13:19.175Z,22.75
2022-08-14T07:14:19.166Z,22.66
2022-08-14T07:15:19.146Z,22.44
2022-08-14T07:16:19.171Z,22.17
2022-08-14T07:17:19.124Z,21.96
2022-08-14T07:18:19.117Z,21.99
2022-08-14T07:19:20.752Z,21.85
2022-08-14T07:20:19.092Z,21.79
2022-08-14T07:21:19.068Z,21.71
2022-08-14T07:22:20.619Z,21.48
2022-08-14T07:23:20.637Z,21.46
2022-08-14T07:24:22.093Z,21.49
2022-08-14T07:25:19.017Z,21.59
2022-08-14T07:26:19.007Z,21.53
2022-08-14T07:27:18.990Z,21.52
2022-08-14T07:28:20.465Z,21.46
2022-08-14T07:29:22.800Z,21.48
2022-08-14T07:30:34.183Z,21.63
2022-08-14T07:31:18.938Z,21.90
2022-08-14T07:32:22.051Z,22.04
2022-08-14T07:33:20.875Z,22.31
2022-08-14T07:34:36.078Z,22.60
2022-08-14T07:35:18.880Z,23.19
2022-08-14T07:36:27.611Z,23.67
2022-08-14T07:37:18.857Z,24.39
2022-08-14T07:38:18.850Z,24.77
2022-08-14T07:39:18.885Z,25.30
2022-08-14T07:40:22.101Z,25.67
2022-08-14T07:41:18.799Z,25.94
2022-08-14T07:42:19.941Z,26.27
2022-08-14T07:43:18.773Z,26.68
2022-08-14T07:44:31.986Z,26.86
2022-08-14T07:45:18.747Z,27.08
2022-08-14T07:46:21.012Z,27.30
2022-08-14T07:47:18.728Z,27.49
2022-08-14T07:48:19.465Z,27.87
2022-08-14T07:49:19.727Z,28.21
2022-08-14T07:50:20.086Z,28.58
2022-08-14T07:51:18.674Z,28.45
2022-08-14T07:52:21.947Z,28.38
2022-08-14T07:53:18.651Z,28.67
2022-08-14T07:54:23.296Z,28.76
2022-08-14T07:55:21.237Z,28.70
2022-08-14T07:56:44.482Z,28.46
2022-08-14T07:57:24.772Z,28.67
2022-08-14T07:58:34.214Z,28.88
2022-08-14T07:59:19.587Z,29.23
2022-08-14T08:00:30.956Z,29.57
2022-08-14T08:01:18.541Z,30.00
2022-08-14T08:02:20.630Z,30.56
2022-08-14T08:03:18.588Z,30.16
2022-08-14T08:04:23.967Z,30.18
2022-08-14T08:05:18.494Z,30.49
2022-08-14T08:06:18.484Z,30.68
2022-08-14T08:07:18.467Z,30.78
2022-08-14T08:08:26.973Z,31.22
2022-08-14T08:09:19.460Z,31.23
2022-08-14T08:10:46.161Z,31.34
2022-08-14T08:11:18.412Z,31.42
2022-08-14T08:12:18.463Z,31.47
2022-08-14T08:13:18.385Z,31.75
2022-08-14T08:14:18.382Z,32.12
2022-08-14T08:15:18.369Z,32.02
2022-08-14T08:16:18.355Z,32.06
2022-08-14T08:17:18.334Z,32.32
2022-08-14T08:18:27.644Z,32.40
2022-08-14T08:19:18.310Z,32.50
2022-08-14T08:20:20.188Z,32.69
2022-08-14T08:21:18.285Z,33.20
2022-08-14T08:22:18.275Z,33.68
2022-08-14T08:23:20.640Z,33.93
2022-08-14T08:24:19.854Z,34.23
2022-08-14T08:25:18.447Z,34.48
2022-08-14T08:26:18.223Z,34.87
2022-08-14T08:27:18.211Z,35.10
2022-08-14T08:28:21.919Z,35.28
2022-08-14T08:29:19.209Z,35.25
2022-08-14T08:30:18.234Z,35.50
2022-08-14T08:31:18.168Z,35.68
2022-08-14T08:32:18.156Z,35.78
2022-08-14T08:33:18.507Z,36.05
2022-08-14T08:34:18.420Z,35.71
2022-08-14T08:35:18.116Z,35.69
2022-08-14T08:36:18.538Z,35.66
2022-08-14T08:37:18.091Z,35.83
2022-08-14T08:39:18.664Z,35.58
2022-08-14T08:39:22.539Z,35.66
2022-08-14T08:40:20.590Z,35.84
2022-08-14T08:41:18.054Z,36.31
2022-08-14T08:42:21.502Z,36.23
2022-08-14T08:43:18.031Z,36.55
2022-08-14T08:44:32.222Z,36.75
2022-08-14T08:45:18.038Z,36.55
2022-08-14T08:46:21.137Z,35.91
2022-08-14T08:47:18.012Z,35.92
2022-08-14T08:48:20.863Z,36.00
2022-08-14T08:49:17.958Z,35.83
2022-08-14T08:50:31.120Z,35.78
2022-08-14T08:51:17.936Z,35.71
2022-08-14T08:52:25.054Z,35.81
2022-08-14T08:53:17.914Z,35.69
2022-08-14T08:54:18.375Z,35.25
2022-08-14T08:55:17.889Z,35.12
2022-08-14T08:56:30.331Z,35.31
2022-08-14T08:57:21.508Z,35.47
2022-08-14T08:58:20.060Z,36.08
2022-08-14T08:59:17.835Z,36.46
2022-08-14T09:00:25.711Z,36.78
2022-08-14T09:01:17.882Z,36.48
2022-08-14T09:02:17.805Z,36.43
2022-08-14T09:03:17.794Z,36.37
2022-08-14T09:04:17.779Z,36.38
2022-08-14T09:05:17.772Z,36.41
2022-08-14T09:07:01.352Z,35.99
2022-08-14T09:07:17.745Z,35.02
2022-08-14T09:08:30.227Z,34.60
2022-08-14T09:09:17.741Z,35.13
2022-08-14T09:10:22.169Z,35.31
2022-08-14T09:11:19.605Z,35.78
2022-08-14T09:12:17.688Z,35.81
2022-08-14T09:13:17.709Z,35.29
2022-08-14T09:14:17.664Z,35.07
2022-08-14T09:15:17.667Z,35.55
2022-08-14T09:16:18.815Z,35.92
2022-08-14T09:17:17.637Z,36.37
2022-08-14T09:18:18.511Z,36.25
2022-08-14T09:19:17.614Z,36.62
2022-08-14T09:20:29.401Z,37.18
2022-08-14T09:21:17.589Z,37.23
2022-08-14T09:22:35.936Z,37.05
2022-08-14T09:23:17.571Z,36.83
2022-08-14T09:24:29.353Z,37.06
2022-08-14T09:25:19.513Z,36.53
2022-08-14T09:26:21.371Z,36.46
2022-08-14T09:27:22.696Z,36.89
2022-08-14T09:28:17.512Z,36.83
2022-08-14T09:29:17.518Z,36.94
2022-08-14T09:30:31.655Z,36.84
2022-08-14T09:31:18.142Z,36.31
2022-08-14T09:32:58.966Z,35.95
2022-08-14T09:33:22.587Z,36.40
2022-08-14T09:34:26.842Z,36.94
2022-08-14T09:35:17.436Z,37.35
2022-08-14T09:36:18.484Z,37.81
2022-08-14T09:37:17.413Z,37.43
2022-08-14T09:38:25.763Z,37.02
2022-08-14T09:39:22.862Z,37.45
2022-08-14T09:40:21.111Z,37.01
2022-08-14T09:41:17.368Z,36.60
2022-08-14T09:42:31.839Z,36.33
2022-08-14T09:43:20.035Z,36.19
2022-08-14T09:44:21.011Z,36.55
2022-08-14T09:45:17.332Z,36.89
2022-08-14T09:46:21.037Z,36.94
2022-08-14T09:47:17.315Z,36.35
2022-08-14T09:48:17.298Z,36.64
2022-08-14T09:49:17.330Z,36.84
2022-08-14T09:50:17.409Z,37.21
2022-08-14T09:51:17.442Z,37.69
2022-08-14T09:52:32.879Z,38.26
2022-08-14T09:53:18.344Z,38.82
2022-08-14T09:54:22.315Z,39.19
2022-08-14T09:55:18.257Z,39.16
2022-08-14T09:56:17.234Z,39.39
2022-08-14T09:57:18.224Z,39.29
2022-08-14T09:58:19.974Z,39.53
2022-08-14T09:59:17.309Z,39.44
2022-08-14T10:00:28.635Z,39.41
2022-08-14T10:01:18.232Z,39.20
2022-08-14T10:02:17.210Z,39.27
2022-08-14T10:03:17.234Z,38.59
2022-08-14T10:04:33.045Z,38.87
2022-08-14T10:05:17.111Z,39.12
2022-08-14T10:06:17.104Z,39.44
2022-08-14T10:07:17.094Z,39.17
2022-08-14T10:08:17.227Z,39.63
2022-08-14T10:09:18.098Z,40.11
2022-08-14T10:10:23.672Z,40.31
2022-08-14T10:11:18.084Z,40.31
2022-08-14T10:12:18.921Z,39.84
2022-08-14T10:13:17.033Z,39.87
2022-08-14T10:14:21.144Z,39.88
2022-08-14T10:15:17.009Z,40.06
2022-08-14T10:16:25.691Z,40.24
2022-08-14T10:17:16.994Z,40.66
2022-08-14T10:18:18.481Z,40.98
2022-08-14T10:19:16.974Z,41.20
2022-08-14T10:20:40.726Z,40.97
2022-08-14T10:21:16.944Z,41.09
2022-08-14T10:23:12.841Z,41.65
2022-08-14T10:23:18.154Z,41.48
2022-08-14T10:24:17.661Z,41.21
2022-08-14T10:25:16.905Z,41.62
2022-08-14T10:26:22.601Z,41.65
2022-08-14T10:27:16.885Z,40.41
2022-08-14T10:29:03.692Z,40.38
2022-08-14T10:29:23.664Z,40.11
2022-08-14T10:30:22.683Z,40.25
2022-08-14T10:31:17.871Z,40.71
2022-08-14T10:32:18.166Z,40.85
2022-08-14T10:33:17.853Z,40.39
2022-08-14T10:34:16.817Z,40.10
2022-08-14T10:35:16.820Z,40.44
2022-08-14T10:36:22.249Z,40.21
2022-08-14T10:37:16.793Z,40.11
2022-08-14T10:38:16.772Z,39.99
2022-08-14T10:39:16.970Z,39.50
2022-08-14T10:40:37.385Z,39.22
2022-08-14T10:41:16.777Z,39.76
2022-08-14T10:42:20.881Z,39.90
2022-08-14T10:43:16.729Z,39.90
2022-08-14T10:44:21.196Z,39.31
2022-08-14T10:45:16.702Z,39.35
2022-08-14T10:47:35.893Z,39.59
2022-08-14T10:47:39.643Z,39.29
2022-08-14T10:48:24.568Z,39.14
2022-08-14T10:49:17.682Z,38.16
2022-08-14T10:50:16.653Z,38.47
2022-08-14T10:51:16.633Z,38.93
2022-08-14T10:52:16.626Z,39.19
2022-08-14T10:53:16.620Z,39.29
2022-08-14T10:54:36.299Z,39.46
2022-08-14T10:55:17.616Z,39.44
2022-08-14T10:56:21.994Z,39.46
2022-08-14T10:57:17.600Z,39.47
2022-08-14T10:58:17.215Z,39.65
2022-08-14T10:59:16.557Z,40.02
2022-08-14T11:00:20.630Z,40.06
2022-08-14T11:02:54.526Z,40.21
2022-08-14T11:03:56.082Z,40.64
2022-08-14T11:04:44.995Z,40.78
2022-08-14T11:05:44.954Z,41.09
2022-08-14T11:07:43.899Z,40.33
2022-08-14T11:08:45.733Z,40.16
2022-08-14T11:09:43.880Z,39.85
2022-08-14T11:10:43.874Z,40.21
2022-08-14T11:11:43.867Z,39.31
2022-08-14T11:12:43.981Z,39.24
2022-08-14T11:13:43.845Z,39.76
2022-08-14T11:14:43.834Z,40.04
2022-08-14T11:15:43.824Z,40.31
2022-08-14T11:16:53.215Z,40.03
2022-08-14T11:17:45.920Z,39.73
2022-08-14T11:18:43.801Z,39.82
2022-08-14T11:19:43.784Z,39.99
2022-08-14T11:20:44.792Z,40.03
2022-08-14T11:21:45.848Z,40.44
2022-08-14T11:23:03.585Z,40.66
2022-08-14T11:23:44.770Z,40.33
2022-08-14T11:24:50.739Z,40.45
2022-08-14T11:25:53.356Z,40.92
2022-08-14T11:26:43.712Z,40.91
2022-08-14T11:27:43.706Z,40.80
2022-08-14T11:28:46.988Z,39.72
2022-08-14T11:29:43.680Z,39.39
2022-08-14T11:30:50.161Z,39.53
2022-08-14T11:31:43.668Z,39.47
2022-08-14T11:32:43.828Z,39.35
2022-08-14T11:33:43.645Z,39.56
2022-08-14T11:34:43.861Z,39.54
2022-08-14T11:35:44.185Z,39.94
2022-08-14T11:37:04.466Z,40.44
2022-08-14T11:37:43.611Z,40.68
2022-08-14T11:38:44.919Z,40.86
2022-08-14T11:39:45.396Z,40.71
2022-08-14T11:40:43.571Z,40.94
2022-08-14T11:41:46.701Z,40.94
2022-08-14T11:43:06.228Z,40.86
2022-08-14T11:43:46.869Z,40.49
2022-08-14T11:44:45.508Z,40.36
2022-08-14T11:45:43.531Z,40.39
2022-08-14T11:46:43.511Z,40.64
2022-08-14T11:48:10.688Z,40.46
2022-08-14T11:48:59.598Z,40.00
2022-08-14T11:49:43.482Z,40.03
2022-08-14T11:50:43.528Z,40.39
2022-08-14T11:51:52.890Z,40.75
2022-08-14T11:52:43.456Z,41.19
2022-08-14T11:53:43.451Z,41.50
2022-08-14T11:54:43.432Z,41.28
2022-08-14T11:55:43.425Z,41.20
2022-08-14T11:56:43.538Z,41.02
2022-08-14T11:57:43.403Z,40.82
2022-08-14T11:58:43.401Z,41.21
2022-08-14T11:59:44.105Z,41.66
2022-08-14T12:00:46.265Z,42.14
2022-08-14T12:01:43.361Z,42.21
2022-08-14T12:03:02.882Z,42.14
2022-08-14T12:03:51.162Z,41.82
2022-08-14T12:04:43.389Z,41.54
2022-08-14T12:05:43.323Z,40.60
2022-08-14T12:06:43.318Z,39.76
2022-08-14T12:07:48.309Z,39.85
2022-08-14T12:08:43.306Z,40.21
2022-08-14T12:09:43.375Z,40.15
2022-08-14T12:10:43.607Z,40.11
2022-08-14T12:11:46.878Z,40.34
2022-08-14T12:12:43.261Z,40.49
2022-08-14T12:13:44.288Z,40.66
2022-08-14T12:14:45.750Z,41.00
2022-08-14T12:15:44.560Z,40.82
2022-08-14T12:16:43.219Z,40.44
2022-08-14T12:17:47.612Z,40.18
2022-08-14T12:18:43.199Z,40.36
2022-08-14T12:19:43.188Z,40.31
2022-08-14T12:20:45.597Z,40.06
2022-08-14T12:21:46.563Z,40.34
2022-08-14T12:22:43.396Z,40.18
2022-08-14T12:23:43.150Z,40.16
2022-08-14T12:24:43.142Z,39.90
2022-08-14T12:25:43.129Z,39.68
2022-08-14T12:26:43.121Z,39.05
2022-08-14T12:27:51.943Z,38.92
2022-08-14T12:29:00.047Z,39.24
2022-08-14T12:29:44.172Z,39.43
2022-08-14T12:30:43.899Z,39.48
2022-08-14T12:31:44.500Z,39.69
2022-08-14T12:32:43.060Z,39.56
2022-08-14T12:33:47.115Z,39.43
2022-08-14T12:34:44.945Z,39.00
2022-08-14T12:35:43.035Z,38.58
2022-08-14T12:36:43.023Z,38.36
2022-08-14T12:37:42.998Z,38.60
2022-08-14T12:38:43.552Z,38.77
2022-08-14T12:39:43.010Z,39.10
2022-08-14T12:40:42.973Z,39.16
2022-08-14T12:41:42.952Z,39.10
2022-08-14T12:42:47.608Z,38.38
2022-08-14T12:43:43.960Z,38.06
2022-08-14T12:44:42.943Z,38.03
2022-08-14T12:45:42.916Z,37.77
2022-08-14T12:46:43.404Z,38.07
2022-08-14T12:47:42.895Z,38.45
2022-08-14T12:48:42.892Z,38.59
2022-08-14T12:49:42.867Z,38.71
2022-08-14T12:50:42.860Z,38.74
2022-08-14T12:51:43.872Z,38.72
2022-08-14T12:52:58.751Z,38.63
2022-08-14T12:53:42.828Z,38.36
2022-08-14T12:54:56.067Z,38.40